Jordan, MT

3:58 PM MDT on May 22, 2015 (GMT -0600)
Wokal-Glasgow International | | Change Station
CLOSE
Current Station
Airport
Location: Glasgow,
Elevation: 2293 ft
Nearby Weather Stations
Active Advisory: Lake Wind Advisory

Elev 2293 ft 48.21 °N, 106.62 °W | Updated 5 minutes ago

Overcast
Overcast
73 °F
Feels Like 73 °F
N
16
Wind Variable Wind from SSE
Gusts 26 mph

Today
High -- | Low -- °F
--% Chance of Precip.
Yesterday
High -- | Low -- °F
Precip. -- in
5:23 AM 8:45 PM
Waxing Crescent, 24% visible
Pressure 29.98 in
Visibility 10.0 miles
Clouds Few 7000 ft
Scattered Clouds 10000 ft
Dew Point 40 °F
Humidity 30%
Rainfall 0.00 in
Snow Depth Not available.
UV 5 out of 12
Pollen 9.30 out of 12
Air Quality Not available.
Flu Activity Local Activity
METAR KGGW 222153Z AUTO 16014G23KT 10SM FEW070 SCT100 23/04 A2997 RMK AO2 PK WND 15026/2102 SLP150 T02280044

More Conditions Fewer Conditions

Pressure 29.98 in
Visibility 10.0 miles
Clouds Few 7000 ft
Scattered Clouds 10000 ft
Dew Point 40 °F
Humidity 30%
Rainfall 0.00 in
Snow Depth Not available.
UV 5 out of 12
Pollen 9.30 out of 12
Air Quality Not available.
Flu Activity Local Activity
METAR KGGW 222153Z AUTO 16014G23KT 10SM FEW070 SCT100 23/04 A2997 RMK AO2 PK WND 15026/2102 SLP150 T02280044

More Conditions Fewer Conditions

10-Day Weather Forecast

Almanac

Astronomy

May. 22, 2015 Rise Set
Actual Time
Civil Twilight
Nautical Twilight
Astronomical Twilight
Moon
Length of Visible Light
Length of Day
Tomorrow will be .
, % of the Moon is Illuminated

Today's Extremes

State Highs State Lows

Community

WunderPhotos

Upload Photos

1,823,317 photos uploaded!

WunderBlogs® & News

Nearby

Air Quality

  Air Quality AQ Index Pollutant
Not available.

Snow Depth

Station Depth Elevation

Earthquake Activity

City Distance Mag. Time & Date
Minimum magnitude displayed is 2.5.

Coastal Water Temperatures

Place Temperature

Stations

Nearby Weather Stations

Station Location Temp. Windchill Dew Point Humidity Wind Precip. Elev Updated Type
                   
Lake Wind Advisory
Statement as of 3:09 AM MDT on May 22, 2015

... Lake Wind Advisory remains in effect from 11 am this morning
to 8 PM MDT this evening for Fort Peck Lake...

A lake Wind Advisory for Fort Peck Lake remains in effect from
11 am this morning to 8 PM MDT this evening.

* Timing... late morning today through mid evening.

* Winds... southeast 15 to 30 mph.

* Impacts... these winds will make open waters of the lake rough
and hazardous... and may result in high waves which may tip or
swamp smaller craft.

Precautionary/preparedness actions...

Boaters should use caution if venturing onto Fort Peck Lake. For
your personal safety... avoid the open waters. Stay close to shore
or around protected areas.